KCKB/CKB METAR and TAF weather

Enter ICAO airport designator
Station Type Date Time Source
KCKB METAR 2019/04/21 21:53 UTC NOAA

KCKB 212153Z 20003KT 10SM SCT027 BKN035 OVC044 12/06 A3012 RMK AO2 SLP197 T01170056


Station Type Date Time Source
KCKB Decoded METAR 2019/04/21 21:53 UTC NOAA

HARRISON/MARION REGIONAL, WV, United States (KCKB) 39-18N 080-13W 360M
Apr 21, 2019 - 05:53 PM EDT / 2019.04.21 2153 UTC
Wind: from the SSW (200 degrees) at 3 MPH (3 KT):0
Visibility: 10 mile(s):0
Sky conditions: overcast
Temperature: 53.1 F (11.7 C)
Dew Point: 42.1 F (5.6 C)
Relative Humidity: 66%
Pressure (altimeter): 30.12 in. Hg (1019 hPa)
ob: KCKB 212153Z 20003KT 10SM SCT027 BKN035 OVC044 12/06 A3012 RMK AO2 SLP197 T01170056
cycle: 22

Station Type Date Time Source
KCKB TAF 2019/04/21 19:06 UTC NOAA

TAF
AMD KCKB 211904Z 2119/2218 VRB03KT P6SM OVC035
TEMPO 2119/2123 BKN025
FM220100 00000KT P6SM BKN025
FM221000 00000KT P6SM BKN035
FM221300 00000KT P6SM BKN025
FM221500 00000KT P6SM SCT025

Example: see airport list